Star Princess — ZCDD6 — position and weather

sailwx.info

Track history (hours):
 
Tides and Currents Weather Stations Pressure Air Temp Water Temp Dewpoint Dewpoint Depression Visibility Wind Speed Wind Dir Waves Ship Positions

Star Princess

Operator: Princess Cruises

Last reported at 2017-May-22 19:00 UTC. Time now 2017-May-23 08:59 UTC.
Position N 55°30' W 131°36'.

Length 289.6 m; beam 36 m; draft 8.4 m.

Type: Ship. MMSI: 310361000.

Wind from 180 at 10 knots

Barometer 1022.0 mb
Air temperature 14.2 ° C
Dewpoint 12.7 ° C
Water temperature 10.4 ° C

Date/timePositionNaut miles runAvg speedWind from/ knotsBaromVisibWave heightAir tempDewpointWater temp
2017-May-22 19:00N 55°30' W 131°36'103 8.0 180 / 101022.0 14.212.710.4
2017-May-22 06:00N 53°48' W 131°06'5418.0 130 / 221027.3 5.4 11.5 8.510.0
2017-May-22 03:00N 53°00' W 130°24'5312.3 120 / 161025.3 5.4 12.5 9.612.0
2017-May-21 22:39N 52°16' W 129°35'215.5
2017-May-21 22:30N 52°14' W 129°33'715.1
2017-May-21 22:00N 52°08' W 129°26'815.1
2017-May-21 21:30N 52°02' W 129°19'714.6
2017-May-21 21:00N 51°56' W 129°12'715.3
2017-May-21 20:30N 51°50' W 129°04'815.4
2017-May-21 20:00N 51°43' W 128°57'714.9
2017-May-21 19:31N 51°37' W 128°50'815.0
2017-May-21 19:00N 51°31' W 128°43'815.2
2017-May-21 18:30N 51°25' W 128°36'815.2
2017-May-21 18:00N 51°19' W 128°28'714.8
2017-May-21 17:31N 51°13' W 128°21'714.5
2017-May-21 17:00N 51°09' W 128°12'714.6
2017-May-21 16:30N 51°05' W 128°02'715.0
2017-May-21 16:00N 51°01' W 127°52'1215.0
2017-May-21 15:11N 50°53' W 127°37'317.8
2017-May-21 15:00N 50°51' W 127°33'1817.9
2017-May-21 14:00N 50°44' W 127°06'918.0
2017-May-21 13:30N 50°41' W 126°53'917.5
2017-May-21 13:00N 50°35' W 126°43'712.1
2017-May-21 12:28N 50°31' W 126°36'3218.2
2017-May-21 10:41N 50°22' W 125°47'1318.1
2017-May-21 09:59N 50°20' W 125°27'815.5
2017-May-21 09:30N 50°13' W 125°23'714.0
2017-May-21 09:00N 50°07' W 125°19'713.9
2017-May-21 08:31N 50°01' W 125°13'713.0
2017-May-21 08:00N 49°56' W 125°07'613.0
2017-May-21 07:31N 49°52' W 124°59'713.1
2017-May-21 07:00N 49°48' W 124°51'713.1
2017-May-21 06:30N 49°44' W 124°43'612.8
2017-May-21 06:00N 49°40' W 124°35'713.3
2017-May-21 05:30N 49°36' W 124°27'1714.2
2017-May-21 04:20N 49°28' W 124°04'514.9
2017-May-21 04:00N 49°26' W 123°57'815.1
2017-May-21 03:30N 49°24' W 123°46'815.0
2017-May-21 03:00N 49°21' W 123°36'815.3
2017-May-21 02:31N 49°19' W 123°24'714.8
2017-May-21 02:00N 49°19' W 123°13'5 9.4
2017-May-21 01:30N 49°18' W 123°06'0 0.2
2017-May-21 00:58N 49°17' W 123°06'0 0.0
2017-May-21 00:28N 49°17' W 123°06'0 0.0
2017-May-21 00:00N 49°17' W 123°06'0 0.0
2017-May-20 23:30N 49°17' W 123°06'0 0.0
2017-May-20 23:00N 49°17' W 123°06'0 0.0
2017-May-20 22:30N 49°17' W 123°06'0 0.0
2017-May-20 22:00N 49°17' W 123°06'0 0.0
2017-May-20 21:29N 49°17' W 123°06'0 0.0
2017-May-20 20:59N 49°17' W 123°06'0 0.0
2017-May-20 20:29N 49°17' W 123°06'0 0.0
2017-May-20 19:59N 49°17' W 123°06'0 0.0
2017-May-20 19:29N 49°17' W 123°06'0 0.0
2017-May-20 18:58N 49°17' W 123°06'0 0.0
2017-May-20 18:28N 49°17' W 123°06'0 0.0
2017-May-20 17:58N 49°17' W 123°06'0 0.0
2017-May-20 17:28N 49°17' W 123°06'0 0.0
2017-May-20 17:00N 49°17' W 123°06'0 0.0
2017-May-20 16:30N 49°17' W 123°06'0 0.0
2017-May-20 16:00N 49°17' W 123°06'0 0.0
2017-May-20 15:30N 49°17' W 123°06'0 0.0
2017-May-20 15:00N 49°17' W 123°06'0 0.0
2017-May-20 14:29N 49°17' W 123°06'2 1.5
2017-May-20 13:30N 49°19' W 123°08'4 7.2
2017-May-20 13:00N 49°19' W 123°13'4 8.8
2017-May-20 12:30N 49°18' W 123°20'510.6
2017-May-20 12:00N 49°18' W 123°28'510.7
2017-May-20 11:30N 49°18' W 123°36'510.6
2017-May-20 11:00N 49°19' W 123°44'510.2
2017-May-20 10:30N 49°20' W 123°52'710.3
2017-May-20 09:48N 49°22' W 124°02'6 9.3
2017-May-20 09:08N 49°24' W 124°12'4 9.3
2017-May-20 08:41N 49°26' W 124°18'2 9.4
2017-May-20 08:29N 49°26' W 124°20'5 9.2
2017-May-20 07:59N 49°28' W 124°27'4 8.9
2017-May-20 07:30N 49°31' W 124°31'4 8.4
2017-May-20 07:00N 49°34' W 124°36'4 8.6
2017-May-20 06:30N 49°37' W 124°40'4 8.2
2017-May-20 06:00N 49°41' W 124°44'4 8.0
2017-May-20 05:30N 49°44' W 124°48'5 9.4
2017-May-20 05:00N 49°47' W 124°53'5 9.8
2017-May-20 04:30N 49°50' W 124°59'4 8.2
2017-May-20 04:00N 49°53' W 125°03'4 7.8
2017-May-20 03:29N 49°56' W 125°07'4 8.5
2017-May-20 03:00N 49°59' W 125°12'5 9.8
2017-May-20 02:30N 50°04' W 125°15'510.2
2017-May-20 02:00N 50°07' W 125°20'613.0
2017-May-20 01:31N 50°14' W 125°23'1513.8
2017-May-20 00:26N 50°22' W 125°42'2116.3
2017-May-19 23:10N 50°29' W 126°12'917.3
2017-May-19 22:40N 50°30' W 126°26'317.4
2017-May-19 22:30N 50°30' W 126°31'814.6
2017-May-19 21:57N 50°34' W 126°41'816.0
2017-May-19 21:29N 50°39' W 126°50'917.9
2017-May-19 21:00N 50°43' W 127°02'2217.7
2017-May-19 19:45N 50°52' W 127°34'416.7
2017-May-19 19:30N 50°55' W 127°39'714.5
2017-May-19 19:00N 50°59' W 127°48'713.5
2017-May-19 18:31N 51°03' W 127°57'816.3
2017-May-19 18:00N 51°08' W 128°08'816.6
2017-May-19 17:30N 51°12' W 128°19'917.1
2017-May-19 17:01N 51°19' W 128°28'917.0
2017-May-19 16:31N 51°25' W 128°36'917.5
2017-May-19 16:00N 51°32' W 128°45'917.8
2017-May-19 15:30N 51°39' W 128°54'918.2
2017-May-19 15:01N 51°46' W 129°03'1817.9
2017-May-19 14:01N 52°00' W 129°21'918.2
2017-May-19 13:30N 52°07' W 129°30'35910.7
2017-May-18 04:00N 57°36' W 133°42'   150 / 181012.210.8 12.5 3.610.0
2017-May-15 03:00N 59°36' W 139°48'   230 / 101004.410.8 10.0 7.0 9.0
Track history (hours):
 
Tides and Currents Weather Stations Pressure Air Temp Water Temp Dewpoint Dewpoint Depression Visibility Wind Speed Wind Dir Waves Ship Positions

Star Princess

Operator: Princess Cruises

Last reported at 2017-May-22 19:00 UTC. Time now 2017-May-23 08:59 UTC.
Position N 55°30' W 131°36'.

Length 289.6 m; beam 36 m; draft 8.4 m.

Type: Ship. MMSI: 310361000.

Wind from 180 at 10 knots

Barometer 1022.0 mb
Air temperature 14.2 ° C
Dewpoint 12.7 ° C
Water temperature 10.4 ° C

Date/timePositionNaut miles runAvg speedWind from/ knotsBaromVisibWave heightAir tempDewpointWater temp
2017-May-22 19:00N 55°30' W 131°36'103 8.0 180 / 101022.0 14.212.710.4
2017-May-22 06:00N 53°48' W 131°06'5418.0 130 / 221027.3 5.4 11.5 8.510.0
2017-May-22 03:00N 53°00' W 130°24'5312.3 120 / 161025.3 5.4 12.5 9.612.0
2017-May-21 22:39N 52°16' W 129°35'215.5
2017-May-21 22:30N 52°14' W 129°33'715.1
2017-May-21 22:00N 52°08' W 129°26'815.1
2017-May-21 21:30N 52°02' W 129°19'714.6
2017-May-21 21:00N 51°56' W 129°12'715.3
2017-May-21 20:30N 51°50' W 129°04'815.4
2017-May-21 20:00N 51°43' W 128°57'714.9
2017-May-21 19:31N 51°37' W 128°50'815.0
2017-May-21 19:00N 51°31' W 128°43'815.2
2017-May-21 18:30N 51°25' W 128°36'815.2
2017-May-21 18:00N 51°19' W 128°28'714.8
2017-May-21 17:31N 51°13' W 128°21'714.5
2017-May-21 17:00N 51°09' W 128°12'714.6
2017-May-21 16:30N 51°05' W 128°02'715.0
2017-May-21 16:00N 51°01' W 127°52'1215.0
2017-May-21 15:11N 50°53' W 127°37'317.8
2017-May-21 15:00N 50°51' W 127°33'1817.9
2017-May-21 14:00N 50°44' W 127°06'918.0
2017-May-21 13:30N 50°41' W 126°53'917.5
2017-May-21 13:00N 50°35' W 126°43'712.1
2017-May-21 12:28N 50°31' W 126°36'3218.2
2017-May-21 10:41N 50°22' W 125°47'1318.1
2017-May-21 09:59N 50°20' W 125°27'815.5
2017-May-21 09:30N 50°13' W 125°23'714.0
2017-May-21 09:00N 50°07' W 125°19'713.9
2017-May-21 08:31N 50°01' W 125°13'713.0
2017-May-21 08:00N 49°56' W 125°07'613.0
2017-May-21 07:31N 49°52' W 124°59'713.1
2017-May-21 07:00N 49°48' W 124°51'713.1
2017-May-21 06:30N 49°44' W 124°43'612.8
2017-May-21 06:00N 49°40' W 124°35'713.3
2017-May-21 05:30N 49°36' W 124°27'1714.2
2017-May-21 04:20N 49°28' W 124°04'514.9
2017-May-21 04:00N 49°26' W 123°57'815.1
2017-May-21 03:30N 49°24' W 123°46'815.0
2017-May-21 03:00N 49°21' W 123°36'815.3
2017-May-21 02:31N 49°19' W 123°24'714.8
2017-May-21 02:00N 49°19' W 123°13'5 9.4
2017-May-21 01:30N 49°18' W 123°06'0 0.2
2017-May-21 00:58N 49°17' W 123°06'0 0.0
2017-May-21 00:28N 49°17' W 123°06'0 0.0
2017-May-21 00:00N 49°17' W 123°06'0 0.0
2017-May-20 23:30N 49°17' W 123°06'0 0.0
2017-May-20 23:00N 49°17' W 123°06'0 0.0
2017-May-20 22:30N 49°17' W 123°06'0 0.0
2017-May-20 22:00N 49°17' W 123°06'0 0.0
2017-May-20 21:29N 49°17' W 123°06'0 0.0
2017-May-20 20:59N 49°17' W 123°06'0 0.0
2017-May-20 20:29N 49°17' W 123°06'0 0.0
2017-May-20 19:59N 49°17' W 123°06'0 0.0
2017-May-20 19:29N 49°17' W 123°06'0 0.0
2017-May-20 18:58N 49°17' W 123°06'0 0.0
2017-May-20 18:28N 49°17' W 123°06'0 0.0
2017-May-20 17:58N 49°17' W 123°06'0 0.0
2017-May-20 17:28N 49°17' W 123°06'0 0.0
2017-May-20 17:00N 49°17' W 123°06'0 0.0
2017-May-20 16:30N 49°17' W 123°06'0 0.0
2017-May-20 16:00N 49°17' W 123°06'0 0.0
2017-May-20 15:30N 49°17' W 123°06'0 0.0
2017-May-20 15:00N 49°17' W 123°06'0 0.0
2017-May-20 14:29N 49°17' W 123°06'2 1.5
2017-May-20 13:30N 49°19' W 123°08'4 7.2
2017-May-20 13:00N 49°19' W 123°13'4 8.8
2017-May-20 12:30N 49°18' W 123°20'510.6
2017-May-20 12:00N 49°18' W 123°28'510.7
2017-May-20 11:30N 49°18' W 123°36'510.6
2017-May-20 11:00N 49°19' W 123°44'510.2
2017-May-20 10:30N 49°20' W 123°52'710.3
2017-May-20 09:48N 49°22' W 124°02'6 9.3
2017-May-20 09:08N 49°24' W 124°12'4 9.3
2017-May-20 08:41N 49°26' W 124°18'2 9.4
2017-May-20 08:29N 49°26' W 124°20'5 9.2
2017-May-20 07:59N 49°28' W 124°27'4 8.9
2017-May-20 07:30N 49°31' W 124°31'4 8.4
2017-May-20 07:00N 49°34' W 124°36'4 8.6
2017-May-20 06:30N 49°37' W 124°40'4 8.2
2017-May-20 06:00N 49°41' W 124°44'4 8.0
2017-May-20 05:30N 49°44' W 124°48'5 9.4
2017-May-20 05:00N 49°47' W 124°53'5 9.8
2017-May-20 04:30N 49°50' W 124°59'4 8.2
2017-May-20 04:00N 49°53' W 125°03'4 7.8
2017-May-20 03:29N 49°56' W 125°07'4 8.5
2017-May-20 03:00N 49°59' W 125°12'5 9.8
2017-May-20 02:30N 50°04' W 125°15'510.2
2017-May-20 02:00N 50°07' W 125°20'613.0
2017-May-20 01:31N 50°14' W 125°23'1513.8
2017-May-20 00:26N 50°22' W 125°42'2116.3
2017-May-19 23:10N 50°29' W 126°12'917.3
2017-May-19 22:40N 50°30' W 126°26'317.4
2017-May-19 22:30N 50°30' W 126°31'814.6
2017-May-19 21:57N 50°34' W 126°41'816.0
2017-May-19 21:29N 50°39' W 126°50'917.9
2017-May-19 21:00N 50°43' W 127°02'2217.7
2017-May-19 19:45N 50°52' W 127°34'416.7
2017-May-19 19:30N 50°55' W 127°39'714.5
2017-May-19 19:00N 50°59' W 127°48'713.5
2017-May-19 18:31N 51°03' W 127°57'816.3
2017-May-19 18:00N 51°08' W 128°08'816.6
2017-May-19 17:30N 51°12' W 128°19'917.1
2017-May-19 17:01N 51°19' W 128°28'917.0
2017-May-19 16:31N 51°25' W 128°36'917.5
2017-May-19 16:00N 51°32' W 128°45'917.8
2017-May-19 15:30N 51°39' W 128°54'918.2
2017-May-19 15:01N 51°46' W 129°03'1817.9
2017-May-19 14:01N 52°00' W 129°21'918.2
2017-May-19 13:30N 52°07' W 129°30'35910.7
2017-May-18 04:00N 57°36' W 133°42'   150 / 181012.210.8 12.5 3.610.0
2017-May-15 03:00N 59°36' W 139°48'   230 / 101004.410.8 10.0 7.0 9.0

Dump ship's entire track history